createdAt,value
2023-04-14T00:01:15.028Z,9.93
2023-04-14T00:06:37.122Z,9.85
2023-04-14T00:11:58.932Z,9.81
2023-04-14T00:17:20.797Z,9.81
2023-04-14T00:22:42.666Z,9.90
2023-04-14T00:28:04.577Z,9.89
2023-04-14T00:33:26.416Z,9.78
2023-04-14T00:38:48.261Z,9.82
2023-04-14T00:44:10.113Z,9.58
2023-04-14T00:49:32.118Z,9.27
2023-04-14T00:54:54.104Z,9.01
2023-04-14T01:00:16.296Z,8.99
2023-04-14T01:05:38.152Z,8.99
2023-04-14T01:11:20.768Z,8.90
2023-04-14T01:16:43.329Z,8.79
2023-04-14T01:22:09.199Z,8.77
2023-04-14T01:27:36.335Z,8.44
2023-04-14T01:33:03.530Z,8.50
2023-04-14T01:38:27.717Z,8.65
2023-04-14T01:43:53.822Z,8.61
2023-04-14T01:49:18.222Z,8.59
2023-04-14T01:54:42.583Z,8.33
2023-04-14T02:00:07.570Z,8.09
2023-04-14T02:05:31.527Z,8.18
2023-04-14T02:10:57.568Z,8.10
2023-04-14T02:16:20.213Z,8.06
2023-04-14T02:21:42.655Z,8.09
2023-04-14T02:27:11.791Z,8.09
2023-04-14T02:32:36.299Z,7.97
2023-04-14T02:38:07.353Z,7.82
2023-04-14T02:43:32.220Z,7.64
2023-04-14T02:48:55.009Z,7.64
2023-04-14T02:54:18.700Z,7.58
2023-04-14T02:59:42.054Z,7.41
2023-04-14T03:05:05.693Z,7.38
2023-04-14T03:10:28.199Z,7.21
2023-04-14T03:15:52.892Z,7.17
2023-04-14T03:21:15.889Z,7.17
2023-04-14T03:26:38.822Z,7.15
2023-04-14T03:32:05.119Z,7.03
2023-04-14T03:37:28.745Z,6.87
2023-04-14T03:42:51.059Z,6.85
2023-04-14T03:48:14.570Z,7.08
2023-04-14T03:53:38.134Z,7.18
2023-04-14T03:59:01.323Z,7.40
2023-04-14T04:04:24.037Z,7.35
2023-04-14T04:09:48.277Z,7.52
2023-04-14T04:15:10.479Z,7.37
2023-04-14T04:20:34.573Z,7.58
2023-04-14T04:25:56.518Z,7.53
2023-04-14T04:31:20.005Z,7.57
2023-04-14T04:36:42.972Z,7.53
2023-04-14T04:42:06.061Z,7.68
2023-04-14T04:47:27.886Z,7.91
2023-04-14T04:52:49.713Z,7.89
2023-04-14T04:58:11.557Z,8.11
2023-04-14T05:03:33.447Z,8.12
2023-04-14T05:08:55.863Z,8.39
2023-04-14T05:14:17.664Z,8.39
2023-04-14T05:19:39.520Z,8.85
2023-04-14T05:25:01.468Z,8.93
2023-04-14T05:30:23.587Z,9.01
2023-04-14T05:35:45.925Z,9.23
2023-04-14T05:41:07.809Z,9.63
2023-04-14T05:46:29.665Z,9.28
2023-04-14T05:51:54.210Z,9.69
2023-04-14T05:57:15.977Z,10.09
2023-04-14T06:02:41.855Z,9.81
2023-04-14T06:08:03.895Z,10.23
2023-04-14T06:13:25.771Z,10.29
2023-04-14T06:18:47.601Z,10.51
2023-04-14T06:24:09.457Z,13.16
2023-04-14T06:29:31.355Z,12.24
2023-04-14T06:34:53.551Z,12.75
2023-04-14T06:40:15.376Z,13.48
2023-04-14T06:45:37.340Z,14.20
2023-04-14T06:50:59.358Z,18.46
2023-04-14T06:56:21.208Z,17.93
2023-04-14T07:01:43.119Z,20.55
2023-04-14T07:07:05.076Z,20.13
2023-04-14T07:12:26.927Z,18.67
2023-04-14T07:17:48.904Z,22.49
2023-04-14T07:23:10.730Z,23.96
2023-04-14T07:28:32.615Z,23.67
2023-04-14T07:33:54.443Z,24.04
2023-04-14T07:39:16.551Z,24.01
2023-04-14T07:44:38.510Z,23.43
2023-04-14T07:50:00.434Z,21.55
2023-04-14T07:55:22.290Z,21.92
2023-04-14T08:00:44.181Z,23.62
2023-04-14T08:06:06.472Z,24.26
2023-04-14T08:11:28.354Z,23.87
2023-04-14T08:16:50.338Z,24.39
2023-04-14T08:22:12.458Z,23.54
2023-04-14T08:27:34.285Z,20.27
2023-04-14T08:32:58.897Z,20.06
2023-04-14T08:38:21.119Z,21.46
2023-04-14T08:43:43.093Z,19.45
2023-04-14T08:49:07.222Z,18.48
2023-04-14T08:54:30.030Z,17.97
2023-04-14T08:59:52.538Z,20.10
2023-04-14T09:05:15.390Z,19.80
2023-04-14T09:10:38.116Z,18.71
2023-04-14T09:15:59.999Z,18.54
2023-04-14T09:21:50.329Z,18.27
2023-04-14T09:27:05.469Z,18.50
2023-04-14T09:32:27.398Z,18.98
2023-04-14T09:37:49.197Z,19.21
2023-04-14T09:43:27.725Z,19.06
2023-04-14T09:48:56.848Z,17.35
2023-04-14T09:54:26.186Z,17.74
2023-04-14T09:59:48.018Z,18.99
2023-04-14T10:05:10.179Z,17.21
2023-04-14T10:10:32.218Z,17.14
2023-04-14T10:15:54.191Z,16.55
2023-04-14T10:21:16.502Z,15.70
2023-04-14T10:26:38.385Z,16.77
2023-04-14T10:32:06.325Z,16.62
2023-04-14T10:37:28.316Z,16.53
2023-04-14T10:42:54.439Z,15.95
2023-04-14T10:48:16.581Z,16.25
2023-04-14T10:53:48.553Z,16.31
2023-04-14T10:59:10.411Z,15.62
2023-04-14T11:04:32.352Z,15.44
2023-04-14T11:09:58.526Z,15.84
2023-04-14T11:15:20.396Z,15.42
2023-04-14T11:20:42.480Z,16.12
2023-04-14T11:26:08.828Z,15.74
2023-04-14T11:31:30.728Z,15.88
2023-04-14T11:36:52.685Z,16.30
2023-04-14T11:42:14.599Z,15.85
2023-04-14T11:47:36.463Z,15.71
2023-04-14T11:53:01.239Z,16.18
2023-04-14T11:58:26.291Z,15.75
2023-04-14T12:03:48.348Z,14.95
2023-04-14T12:09:10.251Z,15.77
2023-04-14T12:14:32.213Z,15.63
2023-04-14T12:19:54.036Z,15.94
2023-04-14T12:25:15.912Z,16.12
2023-04-14T12:30:37.987Z,15.81
2023-04-14T12:36:05.075Z,15.92
2023-04-14T12:41:27.059Z,16.61
2023-04-14T12:46:52.831Z,16.16
2023-04-14T12:52:38.165Z,16.21
2023-04-14T12:58:00.040Z,16.68
2023-04-14T13:03:22.105Z,16.40
2023-04-14T13:08:48.956Z,16.06
2023-04-14T13:14:10.778Z,15.85
2023-04-14T13:19:32.696Z,16.77
2023-04-14T13:24:55.427Z,16.11
2023-04-14T13:30:17.370Z,16.16
2023-04-14T13:35:39.777Z,16.15
2023-04-14T13:41:01.663Z,15.99
2023-04-14T13:46:23.599Z,16.61
2023-04-14T13:51:45.458Z,16.91
2023-04-14T13:57:07.303Z,16.88
2023-04-14T14:02:29.262Z,16.45
2023-04-14T14:07:51.227Z,17.13
2023-04-14T14:13:13.069Z,16.90
2023-04-14T14:18:36.499Z,17.17
2023-04-14T14:23:58.367Z,16.61
2023-04-14T14:29:20.205Z,16.36
2023-04-14T14:34:42.373Z,16.47
2023-04-14T14:40:04.607Z,16.98
2023-04-14T14:45:30.423Z,16.61
2023-04-14T14:50:52.952Z,15.72
2023-04-14T14:56:14.712Z,15.83
2023-04-14T15:01:36.695Z,16.42
2023-04-14T15:06:58.616Z,16.30
2023-04-14T15:12:20.480Z,16.18
2023-04-14T15:17:42.343Z,16.05
2023-04-14T15:23:04.252Z,15.53
2023-04-14T15:28:26.092Z,15.48
2023-04-14T15:33:47.884Z,15.28
2023-04-14T15:39:09.670Z,15.52
2023-04-14T15:44:31.477Z,15.51
2023-04-14T15:50:12.997Z,15.40
2023-04-14T15:55:35.196Z,14.95
2023-04-14T16:00:57.083Z,14.86
2023-04-14T16:06:18.972Z,14.63
2023-04-14T16:11:40.845Z,14.65
2023-04-14T16:17:02.670Z,14.24
2023-04-14T16:22:24.490Z,14.37
2023-04-14T16:27:46.305Z,14.19
2023-04-14T16:33:08.202Z,13.93
2023-04-14T16:38:30.526Z,13.85
2023-04-14T16:43:52.310Z,13.81
2023-04-14T16:49:14.133Z,13.67
2023-04-14T16:54:36.017Z,13.44
2023-04-14T16:59:57.861Z,13.40
2023-04-14T17:05:20.397Z,13.47
2023-04-14T17:10:42.251Z,13.28
2023-04-14T17:16:08.783Z,12.94
2023-04-14T17:21:31.560Z,12.93
2023-04-14T17:26:53.359Z,12.68
2023-04-14T17:32:15.226Z,12.60
2023-04-14T17:37:37.114Z,12.58
2023-04-14T17:42:58.984Z,12.47
2023-04-14T17:48:20.871Z,12.22
2023-04-14T17:53:42.730Z,12.23
2023-04-14T17:59:04.598Z,12.35
2023-04-14T18:04:26.478Z,11.93
2023-04-14T18:09:48.318Z,12.05
2023-04-14T18:15:10.288Z,11.93
2023-04-14T18:20:32.110Z,11.88
2023-04-14T18:31:26.260Z,11.92
2023-04-14T18:36:48.125Z,11.68
2023-04-14T18:42:10.101Z,11.66
2023-04-14T18:47:31.910Z,11.72
2023-04-14T18:52:53.749Z,11.54
2023-04-14T18:58:15.562Z,11.63
2023-04-14T19:03:37.487Z,11.57
2023-04-14T19:08:59.584Z,11.66
2023-04-14T19:14:21.683Z,11.62
2023-04-14T19:19:43.471Z,11.48
2023-04-14T19:25:05.674Z,11.29
2023-04-14T19:30:27.906Z,11.69
2023-04-14T19:35:49.708Z,11.60
2023-04-14T19:41:11.634Z,11.44
2023-04-14T19:46:33.454Z,11.35
2023-04-14T19:51:55.260Z,11.29
2023-04-14T19:57:17.136Z,11.28
2023-04-14T20:02:39.069Z,11.12
2023-04-14T20:08:00.950Z,11.16
2023-04-14T20:13:23.985Z,11.29
2023-04-14T20:18:45.881Z,11.24
2023-04-14T20:24:07.737Z,11.03
2023-04-14T20:29:29.614Z,11.26
2023-04-14T20:34:51.547Z,11.10
2023-04-14T20:40:13.434Z,11.05
2023-04-14T20:45:35.606Z,10.96
2023-04-14T20:50:57.595Z,11.08
2023-04-14T20:56:19.473Z,11.04
2023-04-14T21:01:41.370Z,11.09
2023-04-14T21:07:03.330Z,10.91
2023-04-14T21:12:25.164Z,11.06
2023-04-14T21:17:57.569Z,10.77
2023-04-14T21:23:19.473Z,10.94
2023-04-14T21:28:41.403Z,10.87
2023-04-14T21:34:03.231Z,10.82
2023-04-14T21:39:25.795Z,10.88
2023-04-14T21:44:47.604Z,10.86
2023-04-14T21:50:09.937Z,10.68
2023-04-14T21:55:31.853Z,10.86
2023-04-14T22:00:53.758Z,10.74
2023-04-14T22:06:17.476Z,10.89
2023-04-14T22:11:39.364Z,10.94
2023-04-14T22:17:01.345Z,10.60
2023-04-14T22:22:23.200Z,10.65
2023-04-14T22:27:45.083Z,10.82
2023-04-14T22:33:07.300Z,10.66
2023-04-14T22:38:29.574Z,10.61
2023-04-14T22:43:51.446Z,10.92
2023-04-14T22:49:13.303Z,10.62
2023-04-14T22:54:35.191Z,10.89
2023-04-14T22:59:57.019Z,10.58
2023-04-14T23:05:20.088Z,10.84
2023-04-14T23:10:41.935Z,10.99
2023-04-14T23:16:03.934Z,10.87
2023-04-14T23:21:25.895Z,10.60
2023-04-14T23:26:47.761Z,10.76
2023-04-14T23:32:09.650Z,10.65
2023-04-14T23:37:31.511Z,10.70
2023-04-14T23:42:53.317Z,10.72
2023-04-14T23:48:15.153Z,10.71
2023-04-14T23:53:36.964Z,10.91
2023-04-14T23:58:59.520Z,10.53
